Aviation Digital Data Service (ADDS)

Output produced by METARs form (0233 UTC 25 January 2020)
found at http://www.aviationweather.gov/metar/data/
 
METAR text: ELLX 250220Z AUTO VRB01KT 0150 R24/0350N FZFG VV000 M01/M01 Q1021 NOSIG
Conditions at: ELLX (LUXEMBOURG (AUT), LU) observed 0220 UTC 25 January 2020
Temperature: -1.0°C (30°F)
Dewpoint: -1.0°C (30°F) [RH = 100%]
Pressure (altimeter): 30.15 inches Hg (1021.0 mb)
Winds: variable direction winds at 1 MPH (1 knots; 0.5 m/s)
Visibility: 0.09 miles (0.14 km)
Ceiling: indefinite ceiling with vertical visibility of 0 feet AGL
Clouds: obscured sky
Weather: FZFG  (freezing fog)

METAR text: ELLX 250150Z AUTO VRB02KT 0200 R24/0300N FZFG VV000 M01/M01 Q1021 NOSIG
Conditions at: ELLX (LUXEMBOURG (AUT), LU) observed 0150 UTC 25 January 2020
Temperature: -1.0°C (30°F)
Dewpoint: -1.0°C (30°F) [RH = 100%]
Pressure (altimeter): 30.15 inches Hg (1021.0 mb)
Winds: variable direction winds at 2 MPH (2 knots; 1.0 m/s)
Visibility: 0.12 miles (0.19 km)
Ceiling: indefinite ceiling with vertical visibility of 0 feet AGL
Clouds: obscured sky
Weather: FZFG  (freezing fog)

METAR text: ELLX 250120Z AUTO VRB02KT 0150 R24/0300N FZFG VV000 M01/M01 Q1021 NOSIG
Conditions at: ELLX (LUXEMBOURG (AUT), LU) observed 0120 UTC 25 January 2020
Temperature: -1.0°C (30°F)
Dewpoint: -1.0°C (30°F) [RH = 100%]
Pressure (altimeter): 30.15 inches Hg (1021.0 mb)
Winds: variable direction winds at 2 MPH (2 knots; 1.0 m/s)
Visibility: 0.09 miles (0.14 km)
Ceiling: indefinite ceiling with vertical visibility of 0 feet AGL
Clouds: obscured sky
Weather: FZFG  (freezing fog)

METAR text: ELLX 250050Z AUTO 04004KT 0100 R24/0250N // VV000 M01/M01 Q1021 NOSIG
Conditions at: ELLX (LUXEMBOURG (AUT), LU) observed 0050 UTC 25 January 2020
Temperature: -1.0°C (30°F)
Dewpoint: -1.0°C (30°F) [RH = 100%]
Pressure (altimeter): 30.15 inches Hg (1021.0 mb)
Winds: from the NE (40 degrees) at 5 MPH (4 knots; 2.1 m/s)
Visibility: 0.06 miles (0.10 km)
Ceiling: indefinite ceiling with vertical visibility of 0 feet AGL
Clouds: obscured sky
Weather: no significant weather observed at this time

METAR text: ELLX 250020Z AUTO VRB02KT 0150 R24/0225N // VV000 M01/M01 Q1021 NOSIG
Conditions at: ELLX (LUXEMBOURG (AUT), LU) observed 0020 UTC 25 January 2020
Temperature: -1.0°C (30°F)
Dewpoint: -1.0°C (30°F) [RH = 100%]
Pressure (altimeter): 30.15 inches Hg (1021.0 mb)
Winds: variable direction winds at 2 MPH (2 knots; 1.0 m/s)
Visibility: 0.09 miles (0.14 km)
Ceiling: indefinite ceiling with vertical visibility of 0 feet AGL
Clouds: obscured sky
Weather: no significant weather observed at this time

METAR text: ELLX 242350Z VRB02KT 0100 R24/0400N FZFG VV002 M01/M01 Q1022 NOSIG
Conditions at: ELLX (LUXEMBOURG (AUT), LU) observed 2350 UTC 24 January 2020
Temperature: -1.0°C (30°F)
Dewpoint: -1.0°C (30°F) [RH = 100%]
Pressure (altimeter): 30.18 inches Hg (1022.0 mb)
Winds: variable direction winds at 2 MPH (2 knots; 1.0 m/s)
Visibility: 0.06 miles (0.10 km)
Ceiling: indefinite ceiling with vertical visibility of 200 feet AGL
Clouds: obscured sky
Weather: FZFG  (freezing fog)

METAR text: ELLX 242320Z 14001KT 0100 R24/0275N FZFG VV002 M01/M01 Q1022 NOSIG
Conditions at: ELLX (LUXEMBOURG (AUT), LU) observed 2320 UTC 24 January 2020
Temperature: -1.0°C (30°F)
Dewpoint: -1.0°C (30°F) [RH = 100%]
Pressure (altimeter): 30.18 inches Hg (1022.0 mb)
Winds: from the SE (140 degrees) at 1 MPH (1 knots; 0.5 m/s)
Visibility: 0.06 miles (0.10 km)
Ceiling: indefinite ceiling with vertical visibility of 200 feet AGL
Clouds: obscured sky
Weather: FZFG  (freezing fog)

METAR text: ELLX 242250Z VRB01KT 0100 R24/0325N FZFG VV002 M01/M01 Q1022 NOSIG
Conditions at: ELLX (LUXEMBOURG (AUT), LU) observed 2250 UTC 24 January 2020
Temperature: -1.0°C (30°F)
Dewpoint: -1.0°C (30°F) [RH = 100%]
Pressure (altimeter): 30.18 inches Hg (1022.0 mb)
Winds: variable direction winds at 1 MPH (1 knots; 0.5 m/s)
Visibility: 0.06 miles (0.10 km)
Ceiling: indefinite ceiling with vertical visibility of 200 feet AGL
Clouds: obscured sky
Weather: FZFG  (freezing fog)

METAR text: ELLX 242220Z VRB01KT 0100 R24/0300N FZFG VV002 M01/M01 Q1022 NOSIG
Conditions at: ELLX (LUXEMBOURG (AUT), LU) observed 2220 UTC 24 January 2020
Temperature: -1.0°C (30°F)
Dewpoint: -1.0°C (30°F) [RH = 100%]
Pressure (altimeter): 30.18 inches Hg (1022.0 mb)
Winds: variable direction winds at 1 MPH (1 knots; 0.5 m/s)
Visibility: 0.06 miles (0.10 km)
Ceiling: indefinite ceiling with vertical visibility of 200 feet AGL
Clouds: obscured sky
Weather: FZFG  (freezing fog)

METAR text: ELLX 242150Z VRB01KT 0100 R24/0300N FZFG VV002 M01/M01 Q1022 NOSIG
Conditions at: ELLX (LUXEMBOURG (AUT), LU) observed 2150 UTC 24 January 2020
Temperature: -1.0°C (30°F)
Dewpoint: -1.0°C (30°F) [RH = 100%]
Pressure (altimeter): 30.18 inches Hg (1022.0 mb)
Winds: variable direction winds at 1 MPH (1 knots; 0.5 m/s)
Visibility: 0.06 miles (0.10 km)
Ceiling: indefinite ceiling with vertical visibility of 200 feet AGL
Clouds: obscured sky
Weather: FZFG  (freezing fog)

METAR text: ELLX 242120Z VRB01KT 0100 R24/0300N FZFG VV002 M01/M01 Q1022 NOSIG
Conditions at: ELLX (LUXEMBOURG (AUT), LU) observed 2120 UTC 24 January 2020
Temperature: -1.0°C (30°F)
Dewpoint: -1.0°C (30°F) [RH = 100%]
Pressure (altimeter): 30.18 inches Hg (1022.0 mb)
Winds: variable direction winds at 1 MPH (1 knots; 0.5 m/s)
Visibility: 0.06 miles (0.10 km)
Ceiling: indefinite ceiling with vertical visibility of 200 feet AGL
Clouds: obscured sky
Weather: FZFG  (freezing fog)

METAR text: ELLX 242050Z VRB02KT 0100 R24/0275N FZFG VV002 M01/M01 Q1022 NOSIG
Conditions at: ELLX (LUXEMBOURG (AUT), LU) observed 2050 UTC 24 January 2020
Temperature: -1.0°C (30°F)
Dewpoint: -1.0°C (30°F) [RH = 100%]
Pressure (altimeter): 30.18 inches Hg (1022.0 mb)
Winds: variable direction winds at 2 MPH (2 knots; 1.0 m/s)
Visibility: 0.06 miles (0.10 km)
Ceiling: indefinite ceiling with vertical visibility of 200 feet AGL
Clouds: obscured sky
Weather: FZFG  (freezing fog)

METAR text: ELLX 242020Z 22004KT 190V260 0100 R24/0275N FZFG VV002 M01/M01 Q1022 NOSIG
Conditions at: ELLX (LUXEMBOURG (AUT), LU) observed 2020 UTC 24 January 2020
Temperature: -1.0°C (30°F)
Dewpoint: -1.0°C (30°F) [RH = 100%]
Pressure (altimeter): 30.18 inches Hg (1022.0 mb)
Winds: from the SW (220 degrees) at 5 MPH (4 knots; 2.1 m/s)
Visibility: 0.06 miles (0.10 km)
Ceiling: indefinite ceiling with vertical visibility of 200 feet AGL
Clouds: obscured sky
Weather: FZFG  (freezing fog)

METAR text: ELLX 241950Z 18005KT 150V210 0100 R24/0350N FZFG VV001 M01/M01 Q1022 NOSIG
Conditions at: ELLX (LUXEMBOURG (AUT), LU) observed 1950 UTC 24 January 2020
Temperature: -1.0°C (30°F)
Dewpoint: -1.0°C (30°F) [RH = 100%]
Pressure (altimeter): 30.18 inches Hg (1022.0 mb)
Winds: from the S (180 degrees) at 6 MPH (5 knots; 2.6 m/s)
Visibility: 0.06 miles (0.10 km)
Ceiling: indefinite ceiling with vertical visibility of 100 feet AGL
Clouds: obscured sky
Weather: FZFG  (freezing fog)

METAR text: ELLX 241920Z VRB02KT 0100 R24/0300N FZFG VV002 M01/M01 Q1022 NOSIG
Conditions at: ELLX (LUXEMBOURG (AUT), LU) observed 1920 UTC 24 January 2020
Temperature: -1.0°C (30°F)
Dewpoint: -1.0°C (30°F) [RH = 100%]
Pressure (altimeter): 30.18 inches Hg (1022.0 mb)
Winds: variable direction winds at 2 MPH (2 knots; 1.0 m/s)
Visibility: 0.06 miles (0.10 km)
Ceiling: indefinite ceiling with vertical visibility of 200 feet AGL
Clouds: obscured sky
Weather: FZFG  (freezing fog)

METAR text: ELLX 241850Z VRB02KT 0100 R24/0300V0450N FZFG VV002 M01/M01 Q1022 NOSIG
Conditions at: ELLX (LUXEMBOURG (AUT), LU) observed 1850 UTC 24 January 2020
Temperature: -1.0°C (30°F)
Dewpoint: -1.0°C (30°F) [RH = 100%]
Pressure (altimeter): 30.18 inches Hg (1022.0 mb)
Winds: variable direction winds at 2 MPH (2 knots; 1.0 m/s)
Visibility: 0.06 miles (0.10 km)
Ceiling: indefinite ceiling with vertical visibility of 200 feet AGL
Clouds: obscured sky
Weather: FZFG  (freezing fog)

METAR text: ELLX 241820Z VRB05KT 0100 R24/0400V0900D FZFG VV002 M01/M01 Q1022 NOSIG
Conditions at: ELLX (LUXEMBOURG (AUT), LU) observed 1820 UTC 24 January 2020
Temperature: -1.0°C (30°F)
Dewpoint: -1.0°C (30°F) [RH = 100%]
Pressure (altimeter): 30.18 inches Hg (1022.0 mb)
Winds: variable direction winds at 6 MPH (5 knots; 2.6 m/s)
Visibility: 0.06 miles (0.10 km)
Ceiling: indefinite ceiling with vertical visibility of 200 feet AGL
Clouds: obscured sky
Weather: FZFG  (freezing fog)

METAR text: ELLX 241750Z VRB01KT 0100 R24/0400N FZFG VV002 M01/M01 Q1022 NOSIG
Conditions at: ELLX (LUXEMBOURG (AUT), LU) observed 1750 UTC 24 January 2020
Temperature: -1.0°C (30°F)
Dewpoint: -1.0°C (30°F) [RH = 100%]
Pressure (altimeter): 30.18 inches Hg (1022.0 mb)
Winds: variable direction winds at 1 MPH (1 knots; 0.5 m/s)
Visibility: 0.06 miles (0.10 km)
Ceiling: indefinite ceiling with vertical visibility of 200 feet AGL
Clouds: obscured sky
Weather: FZFG  (freezing fog)

METAR text: ELLX 241720Z VRB03KT 0100 R24/0400N FZFG VV002 M01/M01 Q1022 NOSIG
Conditions at: ELLX (LUXEMBOURG (AUT), LU) observed 1720 UTC 24 January 2020
Temperature: -1.0°C (30°F)
Dewpoint: -1.0°C (30°F) [RH = 100%]
Pressure (altimeter): 30.18 inches Hg (1022.0 mb)
Winds: variable direction winds at 3 MPH (3 knots; 1.5 m/s)
Visibility: 0.06 miles (0.10 km)
Ceiling: indefinite ceiling with vertical visibility of 200 feet AGL
Clouds: obscured sky
Weather: FZFG  (freezing fog)

METAR text: ELLX 241650Z VRB02KT 0100 R24/0550N FZFG VV002 M01/M01 Q1022 NOSIG
Conditions at: ELLX (LUXEMBOURG (AUT), LU) observed 1650 UTC 24 January 2020
Temperature: -1.0°C (30°F)
Dewpoint: -1.0°C (30°F) [RH = 100%]
Pressure (altimeter): 30.18 inches Hg (1022.0 mb)
Winds: variable direction winds at 2 MPH (2 knots; 1.0 m/s)
Visibility: 0.06 miles (0.10 km)
Ceiling: indefinite ceiling with vertical visibility of 200 feet AGL
Clouds: obscured sky
Weather: FZFG  (freezing fog)

METAR text: ELLX 241620Z 29003KT 220V320 0100 R24/0400V0550N FZFG VV002 M01/M01 Q1022 NOSIG
Conditions at: ELLX (LUXEMBOURG (AUT), LU) observed 1620 UTC 24 January 2020
Temperature: -1.0°C (30°F)
Dewpoint: -1.0°C (30°F) [RH = 100%]
Pressure (altimeter): 30.18 inches Hg (1022.0 mb)
Winds: from the WNW (290 degrees) at 3 MPH (3 knots; 1.5 m/s)
Visibility: 0.06 miles (0.10 km)
Ceiling: indefinite ceiling with vertical visibility of 200 feet AGL
Clouds: obscured sky
Weather: FZFG  (freezing fog)

METAR text: ELLX 241550Z 21003KT 170V290 0100 R24/0600N FZFG VV002 M01/M01 Q1021 NOSIG
Conditions at: ELLX (LUXEMBOURG (AUT), LU) observed 1550 UTC 24 January 2020
Temperature: -1.0°C (30°F)
Dewpoint: -1.0°C (30°F) [RH = 100%]
Pressure (altimeter): 30.15 inches Hg (1021.0 mb)
Winds: from the SSW (210 degrees) at 3 MPH (3 knots; 1.5 m/s)
Visibility: 0.06 miles (0.10 km)
Ceiling: indefinite ceiling with vertical visibility of 200 feet AGL
Clouds: obscured sky
Weather: FZFG  (freezing fog)

METAR text: ELLX 241520Z 29003KT 260V340 0100 R24/0350N FZFG VV002 M01/M01 Q1021 NOSIG
Conditions at: ELLX (LUXEMBOURG (AUT), LU) observed 1520 UTC 24 January 2020
Temperature: -1.0°C (30°F)
Dewpoint: -1.0°C (30°F) [RH = 100%]
Pressure (altimeter): 30.15 inches Hg (1021.0 mb)
Winds: from the WNW (290 degrees) at 3 MPH (3 knots; 1.5 m/s)
Visibility: 0.06 miles (0.10 km)
Ceiling: indefinite ceiling with vertical visibility of 200 feet AGL
Clouds: obscured sky
Weather: FZFG  (freezing fog)

METAR text: ELLX 241450Z 18003KT 0200 R24/0325V0550N FZFG VV002 M01/M01 Q1021 TEMPO 0700
Conditions at: ELLX (LUXEMBOURG (AUT), LU) observed 1450 UTC 24 January 2020
Temperature: -1.0°C (30°F)
Dewpoint: -1.0°C (30°F) [RH = 100%]
Pressure (altimeter): 30.15 inches Hg (1021.0 mb)
Winds: from the S (180 degrees) at 3 MPH (3 knots; 1.5 m/s)
Visibility: 0.12 miles (0.19 km)
Ceiling: indefinite ceiling with vertical visibility of 200 feet AGL
Clouds: obscured sky
Weather: FZFG  (freezing fog)

METAR text: ELLX 241420Z 19004KT 160V240 0200 R24/0550V0900N FZFG VV002 M00/M00 Q1021 TEMPO 0700
Conditions at: ELLX (LUXEMBOURG (AUT), LU) observed 1420 UTC 24 January 2020
Temperature: 0.0°C (32°F)
Dewpoint: 0.0°C (32°F) [RH = 100%]
Pressure (altimeter): 30.15 inches Hg (1021.0 mb)
Winds: from the S (190 degrees) at 5 MPH (4 knots; 2.1 m/s)
Visibility: 0.12 miles (0.19 km)
Ceiling: indefinite ceiling with vertical visibility of 200 feet AGL
Clouds: obscured sky
Weather: FZFG  (freezing fog)

METAR text: ELLX 241350Z 16004KT 130V200 0300 R24/0650V1000U FZFG VV002 M00/M00 Q1022 TEMPO 0700
Conditions at: ELLX (LUXEMBOURG (AUT), LU) observed 1350 UTC 24 January 2020
Temperature: 0.0°C (32°F)
Dewpoint: 0.0°C (32°F) [RH = 100%]
Pressure (altimeter): 30.18 inches Hg (1022.0 mb)
Winds: from the SSE (160 degrees) at 5 MPH (4 knots; 2.1 m/s)
Visibility: 0.19 miles (0.31 km)
Ceiling: indefinite ceiling with vertical visibility of 200 feet AGL
Clouds: obscured sky
Weather: FZFG  (freezing fog)

METAR text: ELLX 241320Z VRB02KT 0250 R24/0500V1000U FZFG BKN000 M01/M01 Q1022 TEMPO 0500
Conditions at: ELLX (LUXEMBOURG (AUT), LU) observed 1320 UTC 24 January 2020
Temperature: -1.0°C (30°F)
Dewpoint: -1.0°C (30°F) [RH = 100%]
Pressure (altimeter): 30.18 inches Hg (1022.0 mb)
Winds: variable direction winds at 2 MPH (2 knots; 1.0 m/s)
Visibility: 0.16 miles (0.26 km)
Ceiling: 0 feet AGL
Clouds: broken clouds at 0 feet AGL
Weather: FZFG  (freezing fog)

METAR text: ELLX 241250Z VRB02KT 0250 R24/0550V0800N FZFG BKN000 M01/M01 Q1022 NOSIG
Conditions at: ELLX (LUXEMBOURG (AUT), LU) observed 1250 UTC 24 January 2020
Temperature: -1.0°C (30°F)
Dewpoint: -1.0°C (30°F) [RH = 100%]
Pressure (altimeter): 30.18 inches Hg (1022.0 mb)
Winds: variable direction winds at 2 MPH (2 knots; 1.0 m/s)
Visibility: 0.16 miles (0.26 km)
Ceiling: 0 feet AGL
Clouds: broken clouds at 0 feet AGL
Weather: FZFG  (freezing fog)

METAR text: ELLX 241220Z 09003KT 050V140 0250 R24/0450V0900D FZFG BKN000 M01/M01 Q1022 NOSIG
Conditions at: ELLX (LUXEMBOURG (AUT), LU) observed 1220 UTC 24 January 2020
Temperature: -1.0°C (30°F)
Dewpoint: -1.0°C (30°F) [RH = 100%]
Pressure (altimeter): 30.18 inches Hg (1022.0 mb)
Winds: from the E (90 degrees) at 3 MPH (3 knots; 1.5 m/s)
Visibility: 0.16 miles (0.26 km)
Ceiling: 0 feet AGL
Clouds: broken clouds at 0 feet AGL
Weather: FZFG  (freezing fog)

METAR text: ELLX 241150Z 15004KT 100V210 0200 R24/0325V0600U FZFG BKN000 M01/M01 Q1022 NOSIG
Conditions at: ELLX (LUXEMBOURG (AUT), LU) observed 1150 UTC 24 January 2020
Temperature: -1.0°C (30°F)
Dewpoint: -1.0°C (30°F) [RH = 100%]
Pressure (altimeter): 30.18 inches Hg (1022.0 mb)
Winds: from the SSE (150 degrees) at 5 MPH (4 knots; 2.1 m/s)
Visibility: 0.12 miles (0.19 km)
Ceiling: 0 feet AGL
Clouds: broken clouds at 0 feet AGL
Weather: FZFG  (freezing fog)

METAR text: ELLX 241120Z 19004KT 150V230 0250 R24/0400V0800D FZFG BKN000 M01/M01 Q1022 NOSIG
Conditions at: ELLX (LUXEMBOURG (AUT), LU) observed 1120 UTC 24 January 2020
Temperature: -1.0°C (30°F)
Dewpoint: -1.0°C (30°F) [RH = 100%]
Pressure (altimeter): 30.18 inches Hg (1022.0 mb)
Winds: from the S (190 degrees) at 5 MPH (4 knots; 2.1 m/s)
Visibility: 0.16 miles (0.26 km)
Ceiling: 0 feet AGL
Clouds: broken clouds at 0 feet AGL
Weather: FZFG  (freezing fog)

METAR text: ELLX 241050Z 17005KT 110V210 0250 R24/0375V0800D FZFG BKN000 M01/M01 Q1023 TEMPO 0500
Conditions at: ELLX (LUXEMBOURG (AUT), LU) observed 1050 UTC 24 January 2020
Temperature: -1.0°C (30°F)
Dewpoint: -1.0°C (30°F) [RH = 100%]
Pressure (altimeter): 30.21 inches Hg (1023.0 mb)
Winds: from the S (170 degrees) at 6 MPH (5 knots; 2.6 m/s)
Visibility: 0.16 miles (0.26 km)
Ceiling: 0 feet AGL
Clouds: broken clouds at 0 feet AGL
Weather: FZFG  (freezing fog)

METAR text: ELLX 241020Z 15005KT 0250 R24/0600V1000D FZFG BKN000 M02/M02 Q1023 TEMPO 0500
Conditions at: ELLX (LUXEMBOURG (AUT), LU) observed 1020 UTC 24 January 2020
Temperature: -2.0°C (28°F)
Dewpoint: -2.0°C (28°F) [RH = 100%]
Pressure (altimeter): 30.21 inches Hg (1023.0 mb)
Winds: from the SSE (150 degrees) at 6 MPH (5 knots; 2.6 m/s)
Visibility: 0.16 miles (0.26 km)
Ceiling: 0 feet AGL
Clouds: broken clouds at 0 feet AGL
Weather: FZFG  (freezing fog)

METAR text: ELLX 240950Z 17006KT 140V200 0250 R24/0550V1000N FZFG SCT000 BKN001 M02/M02 Q1023 TEMPO 0500
Conditions at: ELLX (LUXEMBOURG (AUT), LU) observed 0950 UTC 24 January 2020
Temperature: -2.0°C (28°F)
Dewpoint: -2.0°C (28°F) [RH = 100%]
Pressure (altimeter): 30.21 inches Hg (1023.0 mb)
Winds: from the S (170 degrees) at 7 MPH (6 knots; 3.1 m/s)
Visibility: 0.16 miles (0.26 km)
Ceiling: 100 feet AGL
Clouds: scattered clouds at 0 feet AGL
broken clouds at 100 feet AGL
Weather: FZFG  (freezing fog)

METAR text: ELLX 240920Z 18006KT 140V200 0250 R24/0650V1100U FZFG SCT000 BKN001 M02/M02 Q1023 TEMPO 0500
Conditions at: ELLX (LUXEMBOURG (AUT), LU) observed 0920 UTC 24 January 2020
Temperature: -2.0°C (28°F)
Dewpoint: -2.0°C (28°F) [RH = 100%]
Pressure (altimeter): 30.21 inches Hg (1023.0 mb)
Winds: from the S (180 degrees) at 7 MPH (6 knots; 3.1 m/s)
Visibility: 0.16 miles (0.26 km)
Ceiling: 100 feet AGL
Clouds: scattered clouds at 0 feet AGL
broken clouds at 100 feet AGL
Weather: FZFG  (freezing fog)

METAR text: ELLX 240850Z 18006KT 150V210 0300 R24/0650V1000D FZFG SCT000 BKN001 M02/M02 Q1023 TEMPO 0700
Conditions at: ELLX (LUXEMBOURG (AUT), LU) observed 0850 UTC 24 January 2020
Temperature: -2.0°C (28°F)
Dewpoint: -2.0°C (28°F) [RH = 100%]
Pressure (altimeter): 30.21 inches Hg (1023.0 mb)
Winds: from the S (180 degrees) at 7 MPH (6 knots; 3.1 m/s)
Visibility: 0.19 miles (0.31 km)
Ceiling: 100 feet AGL
Clouds: scattered clouds at 0 feet AGL
broken clouds at 100 feet AGL
Weather: FZFG  (freezing fog)

METAR text: ELLX 240820Z 15006KT 0500 R24/1100N FZFG FEW000 BKN001 M02/M02 Q1023 TEMPO 0700
Conditions at: ELLX (LUXEMBOURG (AUT), LU) observed 0820 UTC 24 January 2020
Temperature: -2.0°C (28°F)
Dewpoint: -2.0°C (28°F) [RH = 100%]
Pressure (altimeter): 30.21 inches Hg (1023.0 mb)
Winds: from the SSE (150 degrees) at 7 MPH (6 knots; 3.1 m/s)
Visibility: 0.31 miles (0.50 km)
Ceiling: 100 feet AGL
Clouds: few clouds at 0 feet AGL
broken clouds at 100 feet AGL
Weather: FZFG  (freezing fog)

METAR text: ELLX 240750Z 17004KT 120V210 0400 R24/0900V1400N FZFG BKN001 M02/M02 Q1023 TEMPO 0700
Conditions at: ELLX (LUXEMBOURG (AUT), LU) observed 0750 UTC 24 January 2020
Temperature: -2.0°C (28°F)
Dewpoint: -2.0°C (28°F) [RH = 100%]
Pressure (altimeter): 30.21 inches Hg (1023.0 mb)
Winds: from the S (170 degrees) at 5 MPH (4 knots; 2.1 m/s)
Visibility: 0.25 miles (0.40 km)
Ceiling: 100 feet AGL
Clouds: broken clouds at 100 feet AGL
Weather: FZFG  (freezing fog)

METAR text: ELLX 240720Z 16006KT 130V210 0800 R24/1900N FZFG SCT001 BKN002 M02/M03 Q1023 TEMPO 0500 BKN001
Conditions at: ELLX (LUXEMBOURG (AUT), LU) observed 0720 UTC 24 January 2020
Temperature: -2.0°C (28°F)
Dewpoint: -3.0°C (27°F) [RH = 93%]
Pressure (altimeter): 30.21 inches Hg (1023.0 mb)
Winds: from the SSE (160 degrees) at 7 MPH (6 knots; 3.1 m/s)
Visibility: 0.50 miles (0.80 km)
Ceiling: 200 feet AGL
Clouds: scattered clouds at 100 feet AGL
broken clouds at 200 feet AGL
Weather: FZFG  (freezing fog)

METAR text: ELLX 240650Z 16006KT 130V200 1500 BR SCT001 BKN002 M02/M03 Q1023 TEMPO 0800 FZFG BKN001
Conditions at: ELLX (LUXEMBOURG (AUT), LU) observed 0650 UTC 24 January 2020
Temperature: -2.0°C (28°F)
Dewpoint: -3.0°C (27°F) [RH = 93%]
Pressure (altimeter): 30.21 inches Hg (1023.0 mb)
Winds: from the SSE (160 degrees) at 7 MPH (6 knots; 3.1 m/s)
Visibility: 0.93 miles (1.50 km)
Ceiling: 200 feet AGL
Clouds: scattered clouds at 100 feet AGL
broken clouds at 200 feet AGL
Weather: BR  (mist)

METAR text: ELLX 240620Z 16006KT 140V200 1500 BR SCT001 BKN002 M02/M03 Q1023 BECMG 0800 FZFG
Conditions at: ELLX (LUXEMBOURG (AUT), LU) observed 0620 UTC 24 January 2020
Temperature: -2.0°C (28°F)
Dewpoint: -3.0°C (27°F) [RH = 93%]
Pressure (altimeter): 30.21 inches Hg (1023.0 mb)
Winds: from the SSE (160 degrees) at 7 MPH (6 knots; 3.1 m/s)
Visibility: 0.93 miles (1.50 km)
Ceiling: 200 feet AGL
Clouds: scattered clouds at 100 feet AGL
broken clouds at 200 feet AGL
Weather: BR  (mist)

METAR text: ELLX 240550Z 13005KT 1200 R24/P2000N BR BKN001 M02/M02 Q1023 BECMG 0800 FZFG
Conditions at: ELLX (LUXEMBOURG (AUT), LU) observed 0550 UTC 24 January 2020
Temperature: -2.0°C (28°F)
Dewpoint: -2.0°C (28°F) [RH = 100%]
Pressure (altimeter): 30.21 inches Hg (1023.0 mb)
Winds: from the SE (130 degrees) at 6 MPH (5 knots; 2.6 m/s)
Visibility: 0.75 miles (1.21 km)
Ceiling: 100 feet AGL
Clouds: broken clouds at 100 feet AGL
Weather: BR  (mist)

METAR text: ELLX 240520Z 12005KT 1100 R24/1300VP2000D BR BKN001 M02/M02 Q1023 NOSIG
Conditions at: ELLX (LUXEMBOURG (AUT), LU) observed 0520 UTC 24 January 2020
Temperature: -2.0°C (28°F)
Dewpoint: -2.0°C (28°F) [RH = 100%]
Pressure (altimeter): 30.21 inches Hg (1023.0 mb)
Winds: from the ESE (120 degrees) at 6 MPH (5 knots; 2.6 m/s)
Visibility: 0.68 miles (1.09 km)
Ceiling: 100 feet AGL
Clouds: broken clouds at 100 feet AGL
Weather: BR  (mist)

METAR text: ELLX 240450Z 13005KT 1100 R24/P2000N BR BKN001 M02/M02 Q1023 NOSIG
Conditions at: ELLX (LUXEMBOURG (AUT), LU) observed 0450 UTC 24 January 2020
Temperature: -2.0°C (28°F)
Dewpoint: -2.0°C (28°F) [RH = 100%]
Pressure (altimeter): 30.21 inches Hg (1023.0 mb)
Winds: from the SE (130 degrees) at 6 MPH (5 knots; 2.6 m/s)
Visibility: 0.68 miles (1.09 km)
Ceiling: 100 feet AGL
Clouds: broken clouds at 100 feet AGL
Weather: BR  (mist)

METAR text: ELLX 240420Z 13005KT 1100 R24/P2000N BR BKN001 M02/M02 Q1023 NOSIG
Conditions at: ELLX (LUXEMBOURG (AUT), LU) observed 0420 UTC 24 January 2020
Temperature: -2.0°C (28°F)
Dewpoint: -2.0°C (28°F) [RH = 100%]
Pressure (altimeter): 30.21 inches Hg (1023.0 mb)
Winds: from the SE (130 degrees) at 6 MPH (5 knots; 2.6 m/s)
Visibility: 0.68 miles (1.09 km)
Ceiling: 100 feet AGL
Clouds: broken clouds at 100 feet AGL
Weather: BR  (mist)

METAR text: ELLX 240350Z 13007KT 1200 R06/P2000N BR BKN001 M02/M02 Q1023 NOSIG
Conditions at: ELLX (LUXEMBOURG (AUT), LU) observed 0350 UTC 24 January 2020
Temperature: -2.0°C (28°F)
Dewpoint: -2.0°C (28°F) [RH = 100%]
Pressure (altimeter): 30.21 inches Hg (1023.0 mb)
Winds: from the SE (130 degrees) at 8 MPH (7 knots; 3.6 m/s)
Visibility: 0.75 miles (1.21 km)
Ceiling: 100 feet AGL
Clouds: broken clouds at 100 feet AGL
Weather: BR  (mist)

METAR text: ELLX 240320Z 14005KT 100V180 1200 R06/P2000N BR BKN001 M02/M02 Q1023 NOSIG
Conditions at: ELLX (LUXEMBOURG (AUT), LU) observed 0320 UTC 24 January 2020
Temperature: -2.0°C (28°F)
Dewpoint: -2.0°C (28°F) [RH = 100%]
Pressure (altimeter): 30.21 inches Hg (1023.0 mb)
Winds: from the SE (140 degrees) at 6 MPH (5 knots; 2.6 m/s)
Visibility: 0.75 miles (1.21 km)
Ceiling: 100 feet AGL
Clouds: broken clouds at 100 feet AGL
Weather: BR  (mist)

METAR text: ELLX 240250Z AUTO 12005KT 1100 R06/P2000N BR BKN001/// M02/M02 Q1023 NOSIG
Conditions at: ELLX (LUXEMBOURG (AUT), LU) observed 0250 UTC 24 January 2020
Temperature: -2.0°C (28°F)
Dewpoint: -2.0°C (28°F) [RH = 100%]
Pressure (altimeter): 30.21 inches Hg (1023.0 mb)
Winds: from the ESE (120 degrees) at 6 MPH (5 knots; 2.6 m/s)
Visibility: 0.68 miles (1.09 km)
Ceiling: 100 feet AGL
Clouds: broken clouds at 100 feet AGL
Weather: BR  (mist)

METAR text: ELLX 240220Z AUTO 15005KT 120V190 1100 R06/1800U BR BKN000/// BKN002/// BKN003/// M02/M02 Q1024 NOSIG
Conditions at: ELLX (LUXEMBOURG (AUT), LU) observed 0220 UTC 24 January 2020
Temperature: -2.0°C (28°F)
Dewpoint: -2.0°C (28°F) [RH = 100%]
Pressure (altimeter): 30.24 inches Hg (1024.0 mb)
Winds: from the SSE (150 degrees) at 6 MPH (5 knots; 2.6 m/s)
Visibility: 0.68 miles (1.09 km)
Ceiling: 0 feet AGL
Clouds: broken clouds at 0 feet AGL
broken clouds at 200 feet AGL
broken clouds at 300 feet AGL
Weather: BR  (mist)

METAR text: ELLX 240150Z AUTO 16006KT 110V200 1000 R06/1500U BR BKN000/// M01/M02 Q1024 NOSIG
Conditions at: ELLX (LUXEMBOURG (AUT), LU) observed 0150 UTC 24 January 2020
Temperature: -1.0°C (30°F)
Dewpoint: -2.0°C (28°F) [RH = 93%]
Pressure (altimeter): 30.24 inches Hg (1024.0 mb)
Winds: from the SSE (160 degrees) at 7 MPH (6 knots; 3.1 m/s)
Visibility: 0.62 miles (1.00 km)
Ceiling: 0 feet AGL
Clouds: broken clouds at 0 feet AGL
Weather: BR  (mist)

METAR text: ELLX 240120Z AUTO 15006KT 120V200 1600 BR OVC001/// M01/M02 Q1024 NOSIG
Conditions at: ELLX (LUXEMBOURG (AUT), LU) observed 0120 UTC 24 January 2020
Temperature: -1.0°C (30°F)
Dewpoint: -2.0°C (28°F) [RH = 93%]
Pressure (altimeter): 30.24 inches Hg (1024.0 mb)
Winds: from the SSE (150 degrees) at 7 MPH (6 knots; 3.1 m/s)
Visibility: 0.99 miles (1.59 km)
Ceiling: 100 feet AGL
Clouds: overcast cloud deck at 100 feet AGL
Weather: BR  (mist)

METAR text: ELLX 240050Z AUTO 14004KT 090V190 2400 BR OVC002/// M01/M02 Q1024 NOSIG
Conditions at: ELLX (LUXEMBOURG (AUT), LU) observed 0050 UTC 24 January 2020
Temperature: -1.0°C (30°F)
Dewpoint: -2.0°C (28°F) [RH = 93%]
Pressure (altimeter): 30.24 inches Hg (1024.0 mb)
Winds: from the SE (140 degrees) at 5 MPH (4 knots; 2.1 m/s)
Visibility: 1.49 miles (2.40 km)
Ceiling: 200 feet AGL
Clouds: overcast cloud deck at 200 feet AGL
Weather: BR  (mist)

METAR text: ELLX 240020Z AUTO 16006KT 3100 BR OVC003/// M01/M02 Q1025 NOSIG
Conditions at: ELLX (LUXEMBOURG (AUT), LU) observed 0020 UTC 24 January 2020
Temperature: -1.0°C (30°F)
Dewpoint: -2.0°C (28°F) [RH = 93%]
Pressure (altimeter): 30.27 inches Hg (1025.0 mb)
Winds: from the SSE (160 degrees) at 7 MPH (6 knots; 3.1 m/s)
Visibility: 1.93 miles (3.11 km)
Ceiling: 300 feet AGL
Clouds: overcast cloud deck at 300 feet AGL
Weather: BR  (mist)

METAR text: ELLX 232350Z AUTO 17006KT 150V210 3700 BR OVC003/// M01/M02 Q1025 NOSIG
Conditions at: ELLX (LUXEMBOURG (AUT), LU) observed 2350 UTC 23 January 2020
Temperature: -1.0°C (30°F)
Dewpoint: -2.0°C (28°F) [RH = 93%]
Pressure (altimeter): 30.27 inches Hg (1025.0 mb)
Winds: from the S (170 degrees) at 7 MPH (6 knots; 3.1 m/s)
Visibility: 2.30 miles (3.70 km)
Ceiling: 300 feet AGL
Clouds: overcast cloud deck at 300 feet AGL
Weather: BR  (mist)

METAR text: ELLX 232320Z 16006KT 130V200 4500 BR BKN004 M01/M02 Q1025 NOSIG
Conditions at: ELLX (LUXEMBOURG (AUT), LU) observed 2320 UTC 23 January 2020
Temperature: -1.0°C (30°F)
Dewpoint: -2.0°C (28°F) [RH = 93%]
Pressure (altimeter): 30.27 inches Hg (1025.0 mb)
Winds: from the SSE (160 degrees) at 7 MPH (6 knots; 3.1 m/s)
Visibility: 2.80 miles (4.51 km)
Ceiling: 400 feet AGL
Clouds: broken clouds at 400 feet AGL
Weather: BR  (mist)

METAR text: ELLX 232250Z 14006KT 120V180 4500 BR BKN004 M01/M02 Q1025 NOSIG
Conditions at: ELLX (LUXEMBOURG (AUT), LU) observed 2250 UTC 23 January 2020
Temperature: -1.0°C (30°F)
Dewpoint: -2.0°C (28°F) [RH = 93%]
Pressure (altimeter): 30.27 inches Hg (1025.0 mb)
Winds: from the SE (140 degrees) at 7 MPH (6 knots; 3.1 m/s)
Visibility: 2.80 miles (4.51 km)
Ceiling: 400 feet AGL
Clouds: broken clouds at 400 feet AGL
Weather: BR  (mist)

METAR text: ELLX 232220Z 14004KT 110V180 5000 BR BKN004 M01/M02 Q1025 NOSIG
Conditions at: ELLX (LUXEMBOURG (AUT), LU) observed 2220 UTC 23 January 2020
Temperature: -1.0°C (30°F)
Dewpoint: -2.0°C (28°F) [RH = 93%]
Pressure (altimeter): 30.27 inches Hg (1025.0 mb)
Winds: from the SE (140 degrees) at 5 MPH (4 knots; 2.1 m/s)
Visibility: 3 miles ( 5 km)
Ceiling: 400 feet AGL
Clouds: broken clouds at 400 feet AGL
Weather: BR  (mist)

METAR text: ELLX 232150Z 14007KT 5000 BR BKN004 M01/M02 Q1025 NOSIG
Conditions at: ELLX (LUXEMBOURG (AUT), LU) observed 2150 UTC 23 January 2020
Temperature: -1.0°C (30°F)
Dewpoint: -2.0°C (28°F) [RH = 93%]
Pressure (altimeter): 30.27 inches Hg (1025.0 mb)
Winds: from the SE (140 degrees) at 8 MPH (7 knots; 3.6 m/s)
Visibility: 3 miles ( 5 km)
Ceiling: 400 feet AGL
Clouds: broken clouds at 400 feet AGL
Weather: BR  (mist)

METAR text: ELLX 232120Z AUTO 14007KT //// R06/P2000N // OVC004/// M01/M02 Q1025 NOSIG
Conditions at: ELLX (LUXEMBOURG (AUT), LU) observed 2120 UTC 23 January 2020
Temperature: -1.0°C (30°F)
Dewpoint: -2.0°C (28°F) [RH = 93%]
Pressure (altimeter): 30.27 inches Hg (1025.0 mb)
Winds: from the SE (140 degrees) at 8 MPH (7 knots; 3.6 m/s)
Visibility: 1.24 miles (2.00 km)
Ceiling: 400 feet AGL
Clouds: overcast cloud deck at 400 feet AGL
Weather: no significant weather observed at this time

METAR text: ELLX 232050Z 09004KT 050V110 5000 BR BKN004 M01/M02 Q1025 NOSIG
Conditions at: ELLX (LUXEMBOURG (AUT), LU) observed 2050 UTC 23 January 2020
Temperature: -1.0°C (30°F)
Dewpoint: -2.0°C (28°F) [RH = 93%]
Pressure (altimeter): 30.27 inches Hg (1025.0 mb)
Winds: from the E (90 degrees) at 5 MPH (4 knots; 2.1 m/s)
Visibility: 3 miles ( 5 km)
Ceiling: 400 feet AGL
Clouds: broken clouds at 400 feet AGL
Weather: BR  (mist)

METAR text: ELLX 232020Z 11003KT 040V150 4000 BR BKN004 M01/M01 Q1025 NOSIG
Conditions at: ELLX (LUXEMBOURG (AUT), LU) observed 2020 UTC 23 January 2020
Temperature: -1.0°C (30°F)
Dewpoint: -1.0°C (30°F) [RH = 100%]
Pressure (altimeter): 30.27 inches Hg (1025.0 mb)
Winds: from the ESE (110 degrees) at 3 MPH (3 knots; 1.5 m/s)
Visibility: 2.49 miles (4.01 km)
Ceiling: 400 feet AGL
Clouds: broken clouds at 400 feet AGL
Weather: BR  (mist)

METAR text: ELLX 231950Z 09006KT 050V130 4000 BR OVC004 M01/M01 Q1025 NOSIG
Conditions at: ELLX (LUXEMBOURG (AUT), LU) observed 1950 UTC 23 January 2020
Temperature: -1.0°C (30°F)
Dewpoint: -1.0°C (30°F) [RH = 100%]
Pressure (altimeter): 30.27 inches Hg (1025.0 mb)
Winds: from the E (90 degrees) at 7 MPH (6 knots; 3.1 m/s)
Visibility: 2.49 miles (4.01 km)
Ceiling: 400 feet AGL
Clouds: overcast cloud deck at 400 feet AGL
Weather: BR  (mist)

METAR text: ELLX 231920Z 08006KT 040V110 4000 BR OVC004 M00/M01 Q1025 NOSIG
Conditions at: ELLX (LUXEMBOURG (AUT), LU) observed 1920 UTC 23 January 2020
Temperature: 0.0°C (32°F)
Dewpoint: -1.0°C (30°F) [RH = 93%]
Pressure (altimeter): 30.27 inches Hg (1025.0 mb)
Winds: from the E (80 degrees) at 7 MPH (6 knots; 3.1 m/s)
Visibility: 2.49 miles (4.01 km)
Ceiling: 400 feet AGL
Clouds: overcast cloud deck at 400 feet AGL
Weather: BR  (mist)

METAR text: ELLX 231850Z 08005KT 050V120 4000 BR BKN004 M00/M01 Q1025 NOSIG
Conditions at: ELLX (LUXEMBOURG (AUT), LU) observed 1850 UTC 23 January 2020
Temperature: 0.0°C (32°F)
Dewpoint: -1.0°C (30°F) [RH = 93%]
Pressure (altimeter): 30.27 inches Hg (1025.0 mb)
Winds: from the E (80 degrees) at 6 MPH (5 knots; 2.6 m/s)
Visibility: 2.49 miles (4.01 km)
Ceiling: 400 feet AGL
Clouds: broken clouds at 400 feet AGL
Weather: BR  (mist)

METAR text: ELLX 231820Z 07006KT 050V110 3000 BR BKN003 M00/M01 Q1026 NOSIG
Conditions at: ELLX (LUXEMBOURG (AUT), LU) observed 1820 UTC 23 January 2020
Temperature: 0.0°C (32°F)
Dewpoint: -1.0°C (30°F) [RH = 93%]
Pressure (altimeter): 30.30 inches Hg (1026.0 mb)
Winds: from the ENE (70 degrees) at 7 MPH (6 knots; 3.1 m/s)
Visibility: 1.86 miles (2.99 km)
Ceiling: 300 feet AGL
Clouds: broken clouds at 300 feet AGL
Weather: BR  (mist)

METAR text: ELLX 231750Z 07007KT 3000 BR BKN003 M00/M01 Q1026 R06/19//53 NOSIG
Conditions at: ELLX (LUXEMBOURG (AUT), LU) observed 1750 UTC 23 January 2020
Temperature: 0.0°C (32°F)
Dewpoint: -1.0°C (30°F) [RH = 93%]
Pressure (altimeter): 30.30 inches Hg (1026.0 mb)
Winds: from the ENE (70 degrees) at 8 MPH (7 knots; 3.6 m/s)
Visibility: 1.86 miles (2.99 km)
Ceiling: 300 feet AGL
Clouds: broken clouds at 300 feet AGL
Weather: BR  (mist)

METAR text: ELLX 231720Z 06007KT 040V100 2500 BR BKN002 00/M00 Q1025 R06/19//53 NOSIG
Conditions at: ELLX (LUXEMBOURG (AUT), LU) observed 1720 UTC 23 January 2020
Temperature: 0.0°C (32°F)
Dewpoint: 0.0°C (32°F) [RH = 100%]
Pressure (altimeter): 30.27 inches Hg (1025.0 mb)
Winds: from the ENE (60 degrees) at 8 MPH (7 knots; 3.6 m/s)
Visibility: 1.55 miles (2.49 km)
Ceiling: 200 feet AGL
Clouds: broken clouds at 200 feet AGL
Weather: BR  (mist)

METAR text: ELLX 231650Z 06009KT 6000 BKN003 00/M01 Q1025 R06/19//53 NOSIG
Conditions at: ELLX (LUXEMBOURG (AUT), LU) observed 1650 UTC 23 January 2020
Temperature: 0.0°C (32°F)
Dewpoint: -1.0°C (30°F) [RH = 93%]
Pressure (altimeter): 30.27 inches Hg (1025.0 mb)
Winds: from the ENE (60 degrees) at 10 MPH (9 knots; 4.6 m/s)
Visibility: 4 miles ( 6 km)
Ceiling: 300 feet AGL
Clouds: broken clouds at 300 feet AGL
Weather: no significant weather observed at this time

METAR text: ELLX 231620Z 05011KT 4000 BR BKN004 00/M00 Q1026 R06/19//53 NOSIG
Conditions at: ELLX (LUXEMBOURG (AUT), LU) observed 1620 UTC 23 January 2020
Temperature: 0.0°C (32°F)
Dewpoint: 0.0°C (32°F) [RH = 100%]
Pressure (altimeter): 30.30 inches Hg (1026.0 mb)
Winds: from the NE (50 degrees) at 13 MPH (11 knots; 5.7 m/s)
Visibility: 2.49 miles (4.01 km)
Ceiling: 400 feet AGL
Clouds: broken clouds at 400 feet AGL
Weather: BR  (mist)

METAR text: ELLX 231550Z 05012KT 7000 SCT003 BKN004 01/M00 Q1025 R06/19//53 NOSIG
Conditions at: ELLX (LUXEMBOURG (AUT), LU) observed 1550 UTC 23 January 2020
Temperature: 1.0°C (34°F)
Dewpoint: 0.0°C (32°F) [RH = 93%]
Pressure (altimeter): 30.27 inches Hg (1025.0 mb)
Winds: from the NE (50 degrees) at 14 MPH (12 knots; 6.2 m/s)
Visibility: 4 miles ( 7 km)
Ceiling: 400 feet AGL
Clouds: scattered clouds at 300 feet AGL
broken clouds at 400 feet AGL
Weather: no significant weather observed at this time

METAR text: ELLX 231520Z 04012KT 9999 SCT003 BKN004 01/M00 Q1026 NOSIG
Conditions at: ELLX (LUXEMBOURG (AUT), LU) observed 1520 UTC 23 January 2020
Temperature: 1.0°C (34°F)
Dewpoint: 0.0°C (32°F) [RH = 93%]
Pressure (altimeter): 30.30 inches Hg (1026.0 mb)
Winds: from the NE (40 degrees) at 14 MPH (12 knots; 6.2 m/s)
Visibility: 6 or more miles (10+ km)
Ceiling: 400 feet AGL
Clouds: scattered clouds at 300 feet AGL
broken clouds at 400 feet AGL
Weather: no significant weather observed at this time

METAR text: ELLX 231450Z 04012KT 9999 SCT004 BKN005 01/00 Q1026 NOSIG
Conditions at: ELLX (LUXEMBOURG (AUT), LU) observed 1450 UTC 23 January 2020
Temperature: 1.0°C (34°F)
Dewpoint: 0.0°C (32°F) [RH = 93%]
Pressure (altimeter): 30.30 inches Hg (1026.0 mb)
Winds: from the NE (40 degrees) at 14 MPH (12 knots; 6.2 m/s)
Visibility: 6 or more miles (10+ km)
Ceiling: 500 feet AGL
Clouds: scattered clouds at 400 feet AGL
broken clouds at 500 feet AGL
Weather: no significant weather observed at this time

Forecast for: ELLX (LUXEMBOURG (AUT), LU)
Text: TAF ELLX 242300Z 2500/2606 15005KT 0100 FZFG VV002
Forecast period: 0000 to 0900 UTC 25 January 2020
Forecast type: FROM: standard forecast or significant change
Winds: from the SSE (150 degrees) at 6 MPH (5 knots; 2.6 m/s)
Visibility: 0.06 miles (0.10 km)
Ceiling: indefinite ceiling with vertical visibility of 200 feet AGL
Clouds: obscured sky
Weather: FZFG  (freezing fog)
Text: BECMG 2509/2511 FG
Forecast period: 0900 to 2000 UTC 25 January 2020
Forecast type: BECOMING: Conditions expected to become as follows by 1100 UTC 25 January 2020
Winds: from the SSE (150 degrees) at 6 MPH (5 knots; 2.6 m/s)
Visibility: 0.06 miles (0.10 km)
Ceiling: indefinite ceiling with vertical visibility of 200 feet AGL
Clouds: obscured sky
Weather: FG  (fog)
Text: PROB30
Forecast period: 0900 to 2100 UTC 25 January 2020
Forecast type: TEMPORARY: The following changes expected for less than half the time period
Visibility: 0.50 miles (0.80 km)
Ceiling: unknown
Clouds: missing
Weather: no significant weather forecast for this period
Text: TEMPO 2509/2521 0800
Forecast period: 2000 UTC 25 January 2020 to 0600 UTC 26 January 2020
Forecast type: BECOMING: Conditions expected to become as follows by 2200 UTC 25 January 2020
Winds: from the SSE (150 degrees) at 6 MPH (5 knots; 2.6 m/s)
Visibility: 0.06 miles (0.10 km)
Ceiling: indefinite ceiling with vertical visibility of 200 feet AGL
Clouds: obscured sky
Weather: FZFG  (freezing fog)